Aktualne dane pomiarowe

Uwaga, wersja testowa! Automatyczne pobieranie danych za pomocą narzędzi lub skryptów to umożliwiających jest zabronione.

Dane meteo z obszaru Polski uzyskane na podstawie depesz SYNOP pobieranych co godzinę z NWS. Najedź myszką na symbol przedstawiony w tabeli, aby uzyskać informacje co do jego znaczenia. Prosimy pamiętać, że to testowa wersja strony, która jeszcze nie jest ukończona. Stworzono również jest krótki FAQ dotyczący korzystania z tej podstrony Anomalie temperatury w chwili obecnej odniesione są do okresu referencyjnego 1951-2016. Okres ten będzie później zmieniony na 1981-2010. Kliknij ikonę aby pobrać plik CSV. Kliknij ikonę aby wygenerować mapę synoptyczną dla danego terminu.

Wybierz Datę:    

        

Sulejów (12469)

Dane terminowe dla wybranej stacji. Kliknij datę, aby otrzymać dane z tego terminu dla wszystkich stacji.

TemperaturaZachmurzenieWiatrCiśnienieOpadyPogoda
 Data t td wb tx tn tg rh  Nt Nl Cl Cm Ch ws wd g1 g2 wx mslp ppp ch 24h 12h t ww ww w1 w2  
2019-06-30 23:00:00 25.4 12.5 17.5--- 4545.0wx-6wx-1161011.8 990.1 -0.3---------
2019-06-30 22:00:00 26.4 12.0 17.7--- 4145.0wx-wx6wx--61011.7 990.1 0.0---------
2019-06-30 21:00:00 25.9 12.3 17.6--- 4340.0wx-wx4wx--41012.0 990.4 0.3---------
2019-06-30 20:00:00 26.0 11.6 17.3--- 4140.0wx-wxwx4wx---1012.0 990.4 0.0---------
2019-06-30 19:00:00 28.4 10.9 17.9--- 3440.0wx-wx4wx--41011.5 990.1 -0.8---------
2019-06-30 18:00:00 31.5 10.7 19.0 35.5 23.6- 2845.0wx-wx4wx-1041011.3 990.1 -1.2- 0.012------
2019-06-30 17:00:00 33.8 9.7 19.4--- 2345.0wx-5wx--51011.5 990.4 -1.6---------
2019-06-30 16:00:00 34.7 8.4 19.1--- 2040.0wx-6wx-961011.9 990.9 -1.8---------
2019-06-30 15:00:00 35.2 10.2 20.0--- 2240.0wx-6wx-1061012.3 991.3 -2.0---------
2019-06-30 14:00:00 34.9 7.8 18.9--- 1940.0wx-6wx-1061013.0 992.0 -2.0---------
2019-06-30 13:00:00 34.7 9.1 19.4--- 2135.0wx-5wx-1051013.8 992.7 -1.7---------
2019-06-30 12:00:00 33.3 8.6 18.7--- 2230.0wx-5wx101051014.5 993.3 -1.6- 0.06------
2019-06-30 11:00:00 32.3 10.3 19.1--- 2630.0wx-5wx-1051015.2 994.0 -1.1---------
2019-06-30 10:00:00 30.8 10.6 18.7--- 2935.0wx-5wx--51015.8 994.4 -1.0---------
2019-06-30 09:00:00 30.0 10.9 18.5--- 3135.0wx-5wx101051016.3 994.9 -0.6---------
2019-06-30 08:00:00 28.8 11.7 18.5--- 3535.0wx-5wx--51016.6 995.1 -0.4---------
2019-06-30 07:00:00 26.4 12.7 18.0--- 4335.0wx-3wx--31017.1 995.4 0.1---------
2019-06-30 06:00:00 23.6 12.5 16.8 25.5 13.1 12 5035.0wx-4wx--41017.4 995.5 0.3- 0.012----- 15.3
2019-06-30 05:00:00 20.4 11.8 15.1--- 5830.0wx-2wx--21017.7 995.5 0.4---------
2019-06-30 04:00:00 15.0 11.3 12.6--- 7930.0wx-2wx---1017.9 995.3 -0.2---------
2019-06-30 03:00:00 13.1 10.0 11.1--- 8135.0wx-2wx--21017.9 995.2 -0.5---------
2019-06-30 02:00:00 13.8 9.9 11.3--- 7740.0wx-2wx--21017.8 995.1 -0.8---------
2019-06-30 01:00:00 14.6 10.1 11.7--- 7440.0wx-2wx--21018.1 995.5 -0.5---------
2019-06-30 00:00:00 15.6 9.8 12.0--- 6840.0wx-wx2wx---1018.2 995.7 -0.4---------
2019-06-29 23:00:00 15.8 10.2 12.3--- 6940.0wx-wx2wx---1018.4 995.9 -0.3---------
2019-06-29 22:00:00 16.4 10.2 12.6--- 6745.0wx-wx2wx---1018.5 996.0 0.1---------
2019-06-29 21:00:00 16.9 9.9 12.6--- 6340.0wx-wxwx1wx---1018.5 996.1 0.3---------
2019-06-29 20:00:00 19.3 9.7 13.6--- 5450.0wx-wx2wx--21018.5 996.2 0.4---------
2019-06-29 19:00:00 21.6 9.4 14.5--- 4640.0wx-wx1wx--11018.0 995.9 0.1---------
2019-06-29 18:00:00 25.5 6.6 15.0 28.1 18.3- 3045.0wx-wx3wx-1131017.6 995.8 0.0- 0.012------
2019-06-29 17:00:00 27.0 5.2 15.0--- 2545.0wx-wx4wx---1017.5 995.8 -0.7---------
2019-06-29 16:00:00 27.4 5.0 15.1--- 2445.0wx-wx6wx---1017.4 995.8 -1.0---------
2019-06-29 15:00:00 27.9 6.5 15.9--- 2640.0wx-wx6wx-1161017.4 995.8 -1.6---------
2019-06-29 14:00:00 27.4 7.7 16.2--- 2940.0wx-wx6wx---1018.2 996.5 -1.8---------
2019-06-29 13:00:00 27.0 7.9 16.1--- 3040.0wxwxwxwx4wx9--1018.5 996.8 -1.8---------
2019-06-29 12:00:00 26.3 7.7 15.7--- 3140.0wxwxwxwxwx6wx111161019.2 997.4 -1.4- 0.06------
2019-06-29 11:00:00 25.4 7.9 15.4--- 3340.0wxwxwxwxwx6wx-1061020.1 998.3 -0.9---------
2019-06-29 10:00:00 24.7 8.1 15.2--- 3540.0wxwxwxwxwx6wx111161020.5 998.6 -0.9---------
2019-06-29 09:00:00 23.8 6.5 14.2--- 3340.0wxwxwxwxwx5wx-1051020.8 998.8 -0.6---------
2019-06-29 08:00:00 22.6 5.0 13.1--- 3245.0wx-wxwx4wx--41021.3 999.2 -0.6---------
2019-06-29 07:00:00 20.6 7.5 13.2--- 4345.0wx-wxwx3wx--31021.7 999.5 -0.3---------
2019-06-29 06:00:00 18.4 6.8 11.9 21.4 8.7 6 4745.0wx-wxwx3wx--31021.8 999.4 -0.3- 0.012----- 10.2
2019-06-29 05:00:00 14.1 8.4 10.6--- 6945.0wx-wxwx2wx--21022.5 999.8 0.2---------
2019-06-29 04:00:00 10.1 6.9 8.1--- 8150.0wx-wxwx1wx--11022.9 999.8 0.1---------
2019-06-29 03:00:00 9.3 6.6 7.6--- 8350.0wx-wxwx2wx--21022.8 999.7 0.1---------
2019-06-29 02:00:00 9.0 6.3 7.3--- 8350.0wx-wxwx2wx--21022.8 999.6 0.1---------
2019-06-29 01:00:00 10.6 6.6 8.1--- 7650.0wx-wxwx1wx--11022.7 999.7 0.5---------
2019-06-29 00:00:00 11.4 7.0 8.7--- 7450.0wx-wxwx1wx--11022.6 999.6 0.7- 0.06------
4.5 ms

 

Print Friendly, PDF & Email